createdAt,value
2022-08-19T00:08:37.612Z,36.20
2022-08-19T00:13:50.784Z,41.72
2022-08-19T00:19:00.799Z,40.42
2022-08-19T00:24:07.147Z,70.82
2022-08-19T00:29:15.564Z,62.30
2022-08-19T00:34:21.574Z,51.10
2022-08-19T00:39:28.265Z,70.38
2022-08-19T00:44:34.544Z,58.22
2022-08-19T00:49:55.252Z,57.88
2022-08-19T00:55:02.425Z,46.20
2022-08-19T01:00:18.746Z,51.95
2022-08-19T01:05:35.984Z,60.85
2022-08-19T01:10:49.133Z,54.92
2022-08-19T01:16:02.278Z,61.72
2022-08-19T01:21:18.417Z,49.90
2022-08-19T01:26:28.085Z,69.80
2022-08-19T01:31:34.538Z,53.15
2022-08-19T01:36:51.555Z,52.10
2022-08-19T01:41:57.959Z,52.15
2022-08-19T01:47:04.166Z,41.95
2022-08-19T01:52:10.241Z,64.70
2022-08-19T01:57:17.307Z,61.88
2022-08-19T02:02:23.319Z,80.50
2022-08-19T02:07:30.947Z,60.75
2022-08-19T02:12:36.805Z,53.20
2022-08-19T02:17:44.228Z,65.65
2022-08-19T02:22:49.777Z,73.07
2022-08-19T02:33:01.013Z,68.32
2022-08-19T02:38:25.186Z,69.78
2022-08-19T02:43:33.851Z,65.82
2022-08-19T02:48:40.881Z,76.30
2022-08-19T02:53:50.750Z,61.83
2022-08-19T02:58:57.989Z,72.97
2022-08-19T03:04:07.068Z,56.20
2022-08-19T03:09:14.280Z,68.97
2022-08-19T03:14:20.631Z,73.50
2022-08-19T03:19:26.202Z,59.90
2022-08-19T03:24:33.184Z,76.20
2022-08-19T03:29:43.250Z,70.63
2022-08-19T03:34:50.125Z,63.03
2022-08-19T03:39:55.890Z,57.78
2022-08-19T03:45:01.711Z,72.32
2022-08-19T03:50:08.724Z,96.28
2022-08-19T03:55:14.409Z,88.53
2022-08-19T04:00:20.498Z,80.75
2022-08-19T04:05:27.805Z,83.40
2022-08-19T04:10:34.263Z,77.13
2022-08-19T04:15:45.994Z,83.05
2022-08-19T04:20:52.221Z,78.15
2022-08-19T04:25:58.860Z,80.45
2022-08-19T04:31:04.685Z,83.22
2022-08-19T04:36:18.944Z,85.03
2022-08-19T04:41:44.895Z,83.43
2022-08-19T04:46:52.986Z,77.53
2022-08-19T04:51:59.266Z,74.68
2022-08-19T04:57:06.095Z,76.97
2022-08-19T05:02:13.494Z,69.30
2022-08-19T05:07:19.739Z,80.63
2022-08-19T05:12:29.334Z,77.80
2022-08-19T05:17:38.639Z,75.25
2022-08-19T05:22:46.273Z,72.57
2022-08-19T05:27:52.822Z,68.32
2022-08-19T05:32:58.925Z,67.22
2022-08-19T05:38:05.008Z,62.58
2022-08-19T05:43:11.720Z,58.55
2022-08-19T05:48:19.898Z,49.70
2022-08-19T05:53:25.813Z,42.20
2022-08-19T05:58:31.771Z,53.40
2022-08-19T06:03:38.946Z,49.75
2022-08-19T06:08:47.631Z,54.60
2022-08-19T06:13:59.795Z,46.55
2022-08-19T06:19:09.804Z,44.35
2022-08-19T06:24:18.547Z,48.25
2022-08-19T06:29:26.627Z,45.35
2022-08-19T06:34:35.091Z,51.30
2022-08-19T06:39:43.862Z,46.67
2022-08-19T06:44:53.279Z,50.10
2022-08-19T06:50:05.727Z,48.38
2022-08-19T06:55:12.231Z,48.63
2022-08-19T07:00:18.303Z,45.47
2022-08-19T07:05:24.717Z,53.63
2022-08-19T07:10:30.496Z,49.05
2022-08-19T07:15:36.057Z,49.78
2022-08-19T07:20:45.973Z,52.25
2022-08-19T07:25:53.230Z,43.42
2022-08-19T07:30:59.191Z,45.28
2022-08-19T07:36:13.768Z,46.60
2022-08-19T07:41:25.918Z,46.13
2022-08-19T07:46:36.124Z,45.15
2022-08-19T07:51:46.138Z,45.00
2022-08-19T07:56:53.368Z,49.83
2022-08-19T08:02:00.849Z,51.72
2022-08-19T08:07:31.547Z,48.13
2022-08-19T08:12:44.863Z,48.80
2022-08-19T08:18:10.801Z,41.97
2022-08-19T08:23:27.530Z,51.35
2022-08-19T08:28:33.409Z,54.35
2022-08-19T08:33:39.345Z,52.17
2022-08-19T08:38:49.503Z,52.30
2022-08-19T08:43:57.843Z,56.75
2022-08-19T08:49:23.628Z,35.42
2022-08-19T08:54:39.069Z,51.90
2022-08-19T08:59:46.492Z,48.15
2022-08-19T09:04:52.411Z,54.55
2022-08-19T09:10:30.819Z,51.47
2022-08-19T09:20:50.538Z,52.42
2022-08-19T09:25:56.172Z,52.17
2022-08-19T09:31:01.813Z,52.38
2022-08-19T09:36:14.191Z,56.92
2022-08-19T09:41:29.878Z,47.13
2022-08-19T09:46:35.401Z,52.85
2022-08-19T09:51:41.707Z,45.10
2022-08-19T09:56:47.512Z,57.00
2022-08-19T10:01:54.359Z,54.13
2022-08-19T10:07:00.326Z,52.30
2022-08-19T10:12:11.298Z,49.15
2022-08-19T10:17:19.967Z,48.50
2022-08-19T10:22:28.023Z,49.30
2022-08-19T10:27:33.946Z,57.35
2022-08-19T10:32:46.372Z,51.03
2022-08-19T10:37:57.320Z,50.20
2022-08-19T10:43:07.667Z,51.25
2022-08-19T10:48:15.637Z,52.53
2022-08-19T10:53:27.980Z,54.63
2022-08-19T10:58:34.014Z,25.60
2022-08-19T11:03:40.149Z,32.17
2022-08-19T11:08:48.363Z,51.40
2022-08-19T11:13:55.541Z,53.42
2022-08-19T11:19:03.588Z,54.00
2022-08-19T11:24:15.518Z,54.90
2022-08-19T11:29:24.401Z,50.95
2022-08-19T11:34:30.933Z,53.83
2022-08-19T11:39:39.359Z,57.45
2022-08-19T11:44:45.409Z,58.28
2022-08-19T11:54:57.290Z,59.72
2022-08-19T12:00:04.091Z,59.00
2022-08-19T12:05:12.923Z,62.60
2022-08-19T12:10:20.033Z,63.22
2022-08-19T12:15:29.780Z,58.85
2022-08-19T12:20:44.730Z,43.60
2022-08-19T12:25:54.466Z,41.10
2022-08-19T12:31:00.760Z,45.70
2022-08-19T12:36:12.633Z,41.47
2022-08-19T12:41:20.893Z,38.80
2022-08-19T12:46:26.483Z,44.78
2022-08-19T12:51:34.089Z,27.10
2022-08-19T12:56:40.129Z,36.78
2022-08-19T13:01:46.492Z,28.85
2022-08-19T13:06:51.992Z,34.75
2022-08-19T13:11:59.370Z,23.98
2022-08-19T13:17:05.603Z,26.35
2022-08-19T13:22:13.273Z,23.88
2022-08-19T13:27:20.997Z,22.67
2022-08-19T13:32:44.865Z,21.60
2022-08-19T13:37:50.697Z,18.23
2022-08-19T13:42:58.076Z,18.35
2022-08-19T13:48:08.887Z,15.77
2022-08-19T13:53:17.964Z,18.58
2022-08-19T13:58:24.855Z,23.63
2022-08-19T14:03:31.257Z,21.08
2022-08-19T14:08:37.571Z,20.17
2022-08-19T14:13:43.179Z,21.77
2022-08-19T14:18:49.110Z,20.50
2022-08-19T14:23:55.910Z,23.27
2022-08-19T14:29:01.968Z,21.42
2022-08-19T14:34:07.553Z,20.75
2022-08-19T14:39:14.069Z,16.90
2022-08-19T14:44:19.784Z,20.33
2022-08-19T14:49:34.948Z,19.67
2022-08-19T14:54:40.767Z,18.80
2022-08-19T14:59:47.509Z,17.20
2022-08-19T15:04:58.240Z,16.27
2022-08-19T15:10:04.430Z,17.60
2022-08-19T15:15:11.109Z,19.45
2022-08-19T15:20:17.507Z,16.42
2022-08-19T15:25:23.459Z,17.25
2022-08-19T15:30:30.805Z,18.40
2022-08-19T15:35:36.316Z,15.52
2022-08-19T15:45:49.938Z,18.23
2022-08-19T15:50:55.676Z,17.88
2022-08-19T16:01:26.934Z,20.55
2022-08-19T16:06:33.392Z,19.35
2022-08-19T16:11:39.703Z,20.83
2022-08-19T16:16:48.191Z,22.25
2022-08-19T16:21:55.796Z,24.42
2022-08-19T16:27:03.063Z,20.33
2022-08-19T16:32:11.797Z,23.92
2022-08-19T16:37:18.952Z,18.75
2022-08-19T16:42:26.767Z,17.48
2022-08-19T16:47:32.286Z,16.05
2022-08-19T16:52:38.921Z,15.52
2022-08-19T16:57:45.045Z,18.95
2022-08-19T17:02:50.953Z,18.52
2022-08-19T17:07:56.859Z,23.05
2022-08-19T17:13:03.182Z,21.27
2022-08-19T17:18:11.816Z,20.48
2022-08-19T17:23:17.666Z,23.25
2022-08-19T17:28:27.424Z,20.83
2022-08-19T17:33:33.098Z,19.05
2022-08-19T17:38:40.656Z,21.80
2022-08-19T17:43:46.781Z,16.98
2022-08-19T17:48:56.587Z,18.75
2022-08-19T17:54:02.686Z,19.95
2022-08-19T17:59:13.835Z,19.80
2022-08-19T18:04:21.211Z,26.27
2022-08-19T18:09:41.468Z,22.15
2022-08-19T18:14:48.898Z,24.98
2022-08-19T18:19:54.587Z,23.45
2022-08-19T18:25:01.101Z,25.58
2022-08-19T18:30:10.099Z,22.70
2022-08-19T18:35:17.967Z,23.90
2022-08-19T18:41:03.878Z,22.55
2022-08-19T18:46:27.277Z,22.77
2022-08-19T18:51:38.842Z,25.48
2022-08-19T18:56:46.238Z,33.80
2022-08-19T19:01:57.887Z,47.42
2022-08-19T19:07:03.611Z,34.60
2022-08-19T19:12:12.624Z,36.08
2022-08-19T19:17:18.402Z,30.83
2022-08-19T19:22:24.965Z,45.28
2022-08-19T19:27:30.430Z,38.08
2022-08-19T19:37:46.687Z,38.35
2022-08-19T19:42:53.543Z,40.15
2022-08-19T19:48:00.042Z,35.38
2022-08-19T19:53:05.830Z,32.72
2022-08-19T19:58:11.459Z,33.40
2022-08-19T20:03:23.063Z,33.35
2022-08-19T20:08:48.040Z,30.70
2022-08-19T20:13:53.791Z,27.60
2022-08-19T20:19:01.159Z,26.55
2022-08-19T20:24:10.082Z,26.08
2022-08-19T20:29:39.252Z,54.22
2022-08-19T20:34:46.123Z,49.03
2022-08-19T20:39:51.537Z,39.33
2022-08-19T20:50:02.688Z,49.23
2022-08-19T20:55:08.804Z,41.58
2022-08-19T21:00:15.185Z,31.45
2022-08-19T21:05:20.849Z,44.72
2022-08-19T21:10:27.801Z,28.27
2022-08-19T21:15:33.682Z,23.48
2022-08-19T21:20:39.808Z,16.45
2022-08-19T21:25:50.400Z,18.63
2022-08-19T21:31:01.792Z,15.10
2022-08-19T21:36:07.928Z,8.55
2022-08-19T21:41:13.369Z,7.68
2022-08-19T21:46:18.768Z,5.25
2022-08-19T21:51:24.276Z,5.82
2022-08-19T21:56:30.031Z,4.53
2022-08-19T22:01:35.807Z,5.57
2022-08-19T22:06:41.225Z,3.45
2022-08-19T22:11:46.667Z,3.38
2022-08-19T22:16:52.685Z,3.50
2022-08-19T22:21:59.317Z,3.65
2022-08-19T22:27:08.507Z,3.90
2022-08-19T22:32:25.637Z,5.13
2022-08-19T22:37:33.414Z,7.43
2022-08-19T22:42:39.927Z,3.78
2022-08-19T22:47:46.888Z,2.78
2022-08-19T22:52:52.407Z,2.20
2022-08-19T23:03:03.828Z,4.43
2022-08-19T23:08:09.315Z,4.75
2022-08-19T23:23:27.975Z,4.80
2022-08-19T23:28:52.006Z,4.53
2022-08-19T23:33:57.467Z,4.63
2022-08-19T23:39:02.751Z,5.47
2022-08-19T23:49:20.883Z,4.53
2022-08-19T23:59:49.658Z,5.72
